logo
Rechercher aéroport 
image banner adimage banner adimage banner ad
image banner ad

YXNT - Natural Arch

Situé à Natural Bridge, Australia

ICAO - , IATA -

Données fournies par Airmate  

Information générale

Coordonnées: S28°13'0" E153°13'60"
Élévation : 774 feet MSL.
Variation magnétique : 11° East
Voir autres Aéroports à Queensland

Données opérationnelles

Special qualification required
Heure actuelle UTC:
Heure actuelle locale:
Météo à : YBCG - Gold Coast ( 27 km )
METAR: YBCG 251600Z AUTO 25003KT 9999 // FEW044 13/13 Q1022 RF00.0/000.2
TAF: TAF YBCG 251433Z 2515/2612 24005KT CAVOK FM260000 36013KT 9999 FEW040 FM261000 31005KT 9999 FEW035
Voir NOTAMs / SUP AIP / TFR affectant cet aéroport [VIEW]
Fréquences de communication: [VIEW]

Pistes:

Coordonnées de l'aéroport

Adresse: Natural Bridge Australia

Vue satellite de YXNT